Time;durP1;ratioP1;P1;durP2;ratioP2;P2;SDS_P1;SDS_P2;PMS_P1;PMS_P2;Temp;Humidity;BMP_temperature;BMP_pressure;BME280_temperature;BME280_humidity;BME280_pressure;Samples;Min_cycle;Max_cycle;Signal;HPM_P1;HPM_P2
2022/05/19 00:01:55;;;;;;;6.50;3.00;;;;;;;20.16;75.26;99321.44;4834533;28;20679;-63
2022/05/19 00:04:20;;;;;;;5.22;2.92;;;;;;;19.98;75.28;99304.22;4862689;28;20126;-60
2022/05/19 00:06:46;;;;;;;6.13;2.92;;;;;;;20.26;72.72;99329.03;4780776;28;20046;-62
2022/05/19 00:09:12;;;;;;;8.27;3.75;;;;;;;20.26;71.78;99326.38;4846879;28;20030;-62
2022/05/19 00:11:38;;;;;;;5.93;2.60;;;;;;;20.33;71.16;99338.66;4837541;28;20837;-65
2022/05/19 00:14:05;;;;;;;4.78;2.35;;;;;;;20.08;70.23;99290.72;4802159;28;20062;-61
2022/05/19 00:16:30;;;;;;;6.85;2.50;;;;;;;20.28;70.04;99341.06;4820151;28;20031;-63
2022/05/19 00:18:56;;;;;;;5.70;2.53;;;;;;;20.14;67.58;99312.91;4857034;28;20096;-64
2022/05/19 00:21:22;;;;;;;6.38;2.40;;;;;;;20.39;67.37;99341.53;4851663;28;20026;-61
2022/05/19 00:23:47;;;;;;;6.15;2.60;;;;;;;20.40;68.94;99343.16;4787877;28;21102;-64
2022/05/19 00:26:13;;;;;;;5.70;2.75;;;;;;;19.95;68.61;99280.84;4847808;28;20045;-63
2022/05/19 00:28:38;;;;;;;6.47;2.55;;;;;;;20.38;66.57;99332.78;4861614;28;20678;-63
2022/05/19 00:31:04;;;;;;;6.70;2.38;;;;;;;20.40;67.79;99345.81;4808401;28;20039;-60
2022/05/19 00:33:29;;;;;;;6.95;2.47;;;;;;;20.46;66.43;99348.53;4823759;28;21578;-65
2022/05/19 00:35:55;;;;;;;4.88;2.25;;;;;;;20.50;67.33;99354.25;4861880;28;20377;-63
2022/05/19 00:38:20;;;;;;;4.90;2.63;;;;;;;20.46;68.04;99353.81;4845866;28;20469;-62
2022/05/19 00:40:49;;;;;;;4.80;2.67;;;;;;;20.45;68.90;99361.91;4823265;28;21330;-65
2022/05/19 00:43:15;;;;;;;4.85;2.30;;;;;;;20.44;70.41;99337.31;4841612;28;20560;-65
2022/05/19 00:45:46;;;;;;;7.30;2.70;;;;;;;20.47;71.01;99365.19;4859380;28;20053;-66
2022/05/19 00:48:18;;;;;;;5.43;2.67;;;;;;;20.23;65.27;99342.63;4785013;28;20687;-63
2022/05/19 00:50:49;;;;;;;6.45;2.90;;;;;;;20.24;65.07;99373.28;4811260;28;20042;-65
2022/05/19 00:53:41;;;;;;;5.28;2.20;;;;;;;20.34;66.50;99374.63;4858657;28;20042;-66
2022/05/19 00:56:35;;;;;;;5.38;2.30;;;;;;;20.36;63.86;99374.44;4844649;28;20031;-64
2022/05/19 00:59:00;;;;;;;5.05;2.20;;;;;;;20.44;65.43;99374.28;4840614;28;20517;-64
2022/05/19 01:01:26;;;;;;;4.00;1.88;;;;;;;20.46;65.33;99372.28;4789954;28;20161;-61
2022/05/19 01:03:56;;;;;;;4.88;2.45;;;;;;;20.42;66.75;99364.91;4860834;28;20175;-65
2022/05/19 01:06:23;;;;;;;4.53;2.47;;;;;;;20.45;66.62;99365.38;4841828;28;20130;-66
2022/05/19 01:08:53;;;;;;;5.10;2.15;;;;;;;20.30;66.12;99341.66;4789061;28;20625;-60
2022/05/19 01:11:18;;;;;;;5.22;2.40;;;;;;;20.48;66.28;99372.06;4811339;28;20058;-65
2022/05/19 01:13:44;;;;;;;5.53;2.45;;;;;;;20.48;66.35;99375.56;4850275;28;20039;-65
2022/05/19 01:16:10;;;;;;;4.10;2.17;;;;;;;20.17;66.45;99337.09;4832940;28;20027;-59
2022/05/19 01:18:37;;;;;;;8.05;2.63;;;;;;;20.48;67.04;99372.91;4813726;28;20543;-67
2022/05/19 01:21:03;;;;;;;5.57;2.38;;;;;;;20.45;65.43;99377.75;4836197;28;20046;-66
2022/05/19 01:24:00;;;;;;;6.15;2.10;;;;;;;20.32;65.62;99344.13;4837686;28;20542;-66
2022/05/19 01:26:37;;;;;;;5.05;2.53;;;;;;;20.48;65.86;99374.72;4836440;28;20689;-63
2022/05/19 01:29:03;;;;;;;4.97;2.50;;;;;;;20.30;66.16;99351.44;4785944;28;20607;-65
2022/05/19 01:31:37;;;;;;;4.72;2.22;;;;;;;20.38;67.30;99342.56;4855765;28;20042;-66
2022/05/19 01:34:06;;;;;;;5.80;2.55;;;;;;;20.48;66.97;99361.50;4857307;28;20081;-63
2022/05/19 01:36:32;;;;;;;5.85;2.55;;;;;;;20.45;68.64;99369.84;4800493;28;20066;-61
2022/05/19 01:39:06;;;;;;;6.00;2.20;;;;;;;20.35;68.26;99368.34;4808612;28;20347;-63
2022/05/19 01:42:08;;;;;;;5.75;2.20;;;;;;;20.38;68.07;99366.31;4845810;28;22310;-63
2022/05/19 01:45:18;;;;;;;4.40;2.30;;;;;;;20.47;68.38;99373.09;4862866;28;20048;-66
2022/05/19 01:47:51;;;;;;;4.95;2.05;;;;;;;20.24;66.20;99366.19;4869001;28;20055;-64
2022/05/19 01:50:39;;;;;;;4.50;2.33;;;;;;;20.34;66.60;99382.53;4833948;28;20042;-63
2022/05/19 01:53:11;;;;;;;4.67;2.33;;;;;;;20.22;66.42;99372.66;4803338;28;22060;-66
2022/05/19 01:56:04;;;;;;;6.20;2.33;;;;;;;20.18;65.83;99382.78;4850991;28;20042;-65
2022/05/19 01:58:48;;;;;;;5.53;2.35;;;;;;;20.00;67.01;99348.09;4859020;28;21117;-64
2022/05/19 02:01:15;;;;;;;5.45;2.35;;;;;;;20.13;69.02;99350.84;4860469;28;20039;-66
2022/05/19 02:03:49;;;;;;;5.00;2.25;;;;;;;20.36;68.32;99385.81;4812391;28;20038;-64
2022/05/19 02:06:39;;;;;;;5.32;2.30;;;;;;;20.35;68.52;99376.25;4822153;28;20037;-66
2022/05/19 02:09:08;;;;;;;5.15;2.60;;;;;;;20.37;68.49;99384.00;4862697;28;20062;-65
2022/05/19 02:11:38;;;;;;;4.60;2.40;;;;;;;20.37;67.73;99391.91;4870214;28;20075;-66
2022/05/19 02:14:09;;;;;;;5.47;2.30;;;;;;;20.16;68.36;99369.75;4819170;28;20150;-62
2022/05/19 02:16:36;;;;;;;4.88;2.13;;;;;;;20.04;67.61;99365.16;4830857;28;20097;-67
2022/05/19 02:19:02;;;;;;;5.28;2.30;;;;;;;20.35;69.40;99407.94;4867746;28;21054;-65
2022/05/19 02:21:28;;;;;;;5.15;2.30;;;;;;;20.39;69.97;99412.84;4850552;28;20045;-60
2022/05/19 02:23:56;;;;;;;4.25;2.15;;;;;;;20.40;68.98;99409.19;4790709;28;24932;-65
2022/05/19 02:26:22;;;;;;;5.77;2.40;;;;;;;20.18;68.29;99390.72;4843614;28;20797;-63
2022/05/19 02:28:56;;;;;;;5.90;1.98;;;;;;;20.30;68.99;99418.25;4869493;28;20278;-66
2022/05/19 02:31:22;;;;;;;5.22;2.10;;;;;;;20.33;69.54;99414.41;4807584;28;20054;-60
2022/05/19 02:33:47;;;;;;;5.78;2.33;;;;;;;20.26;69.28;99421.44;4827436;28;20040;-62
2022/05/19 02:36:12;;;;;;;5.47;2.53;;;;;;;20.26;67.92;99408.25;4865113;28;20512;-67
2022/05/19 02:38:38;;;;;;;5.22;2.55;;;;;;;20.07;69.58;99414.97;4847062;28;20495;-60
2022/05/19 02:41:04;;;;;;;4.95;2.30;;;;;;;20.08;69.77;99387.53;4818398;28;20747;-66
2022/05/19 02:43:30;;;;;;;7.55;2.45;;;;;;;20.24;69.77;99405.78;4861795;28;20038;-64
2022/05/19 02:45:55;;;;;;;6.22;2.20;;;;;;;19.99;69.99;99376.31;4866254;28;20166;-64
2022/05/19 02:48:20;;;;;;;5.40;2.20;;;;;;;20.16;70.02;99417.28;4814642;28;20714;-63
2022/05/19 02:50:48;;;;;;;7.47;2.40;;;;;;;20.28;69.60;99420.28;4834479;28;20211;-63
2022/05/19 02:53:13;;;;;;;5.45;2.40;;;;;;;20.00;69.86;99379.75;4860377;28;20398;-67
2022/05/19 02:55:40;;;;;;;4.97;2.30;;;;;;;20.26;70.58;99417.00;4837114;28;20089;-63
2022/05/19 02:58:07;;;;;;;6.70;2.30;;;;;;;20.29;69.02;99419.25;4807713;28;20038;-65
2022/05/19 03:00:33;;;;;;;5.50;2.10;;;;;;;20.23;67.85;99414.72;4838685;28;20038;-66
2022/05/19 03:02:58;;;;;;;6.50;2.45;;;;;;;20.06;69.75;99386.91;4877555;28;20047;-65
2022/05/19 03:05:26;;;;;;;5.00;2.42;;;;;;;20.20;68.73;99422.19;4805128;28;20047;-65
2022/05/19 03:07:52;;;;;;;6.72;2.25;;;;;;;20.04;69.48;99424.09;4832833;28;20537;-65
2022/05/19 03:10:18;;;;;;;6.57;2.60;;;;;;;20.13;69.10;99425.59;4857249;28;20035;-66
2022/05/19 03:12:43;;;;;;;8.88;2.20;;;;;;;19.77;69.49;99380.75;4820729;28;20046;-60
2022/05/19 03:15:10;;;;;;;5.43;2.17;;;;;;;20.11;68.00;99424.13;4808587;28;21338;-66
2022/05/19 03:17:35;;;;;;;4.75;2.10;;;;;;;19.89;68.72;99420.66;4836005;28;20828;-68
2022/05/19 03:20:02;;;;;;;5.53;2.85;;;;;;;19.93;67.93;99417.47;4837670;28;20035;-58
2022/05/19 03:22:28;;;;;;;4.78;2.45;;;;;;;19.77;68.61;99417.69;4778628;28;20161;-66
2022/05/19 03:24:53;;;;;;;4.53;2.20;;;;;;;19.92;68.19;99431.66;4843151;28;25845;-61
2022/05/19 03:27:20;;;;;;;4.32;1.98;;;;;;;19.92;67.76;99420.28;4852082;28;20129;-66
2022/05/19 03:29:46;;;;;;;5.72;2.20;;;;;;;19.70;66.76;99401.72;4812696;28;20039;-59
2022/05/19 03:32:12;;;;;;;5.85;2.22;;;;;;;19.69;66.87;99394.00;4813751;28;20042;-63
2022/05/19 03:34:37;;;;;;;4.65;2.20;;;;;;;19.90;67.70;99432.84;4850340;28;20053;-66
2022/05/19 03:37:04;;;;;;;4.00;2.00;;;;;;;19.86;67.26;99432.41;4849390;28;20086;-63
2022/05/19 03:39:30;;;;;;;4.40;2.22;;;;;;;19.84;66.85;99442.31;4808065;28;20267;-65
2022/05/19 03:41:55;;;;;;;5.38;2.40;;;;;;;19.73;66.60;99433.06;4859497;28;20042;-64
2022/05/19 03:44:21;;;;;;;6.28;2.33;;;;;;;19.80;65.97;99442.88;4860088;28;20039;-66
2022/05/19 03:46:46;;;;;;;4.60;2.33;;;;;;;19.75;66.10;99435.50;4804362;28;20030;-59
2022/05/19 03:49:13;;;;;;;6.00;2.50;;;;;;;19.83;66.01;99459.16;4833814;28;21762;-65
2022/05/19 03:51:40;;;;;;;4.38;2.10;;;;;;;19.77;66.24;99442.25;4853722;28;20031;-62
2022/05/19 03:54:05;;;;;;;4.50;2.45;;;;;;;19.70;66.24;99440.50;4826910;28;20042;-63
2022/05/19 03:56:31;;;;;;;5.13;2.30;;;;;;;19.58;67.26;99424.28;4793951;28;20673;-62
2022/05/19 03:58:56;;;;;;;7.25;2.15;;;;;;;19.81;66.71;99450.59;4856577;28;20065;-71
2022/05/19 04:01:22;;;;;;;4.40;2.20;;;;;;;19.71;67.25;99442.94;4854709;28;20038;-68
2022/05/19 04:03:48;;;;;;;4.72;2.30;;;;;;;19.60;68.07;99419.66;4795303;28;21815;-67
2022/05/19 04:06:13;;;;;;;4.90;2.45;;;;;;;19.62;67.92;99443.22;4838459;28;20035;-66
2022/05/19 04:08:39;;;;;;;5.82;2.30;;;;;;;19.66;68.05;99452.38;4858246;28;20150;-70
2022/05/19 04:11:05;;;;;;;4.97;2.35;;;;;;;19.62;67.76;99440.56;4827114;28;20031;-61
2022/05/19 04:13:30;;;;;;;5.65;2.05;;;;;;;19.70;67.96;99458.97;4808034;28;20177;-64
2022/05/19 04:15:56;;;;;;;5.40;2.22;;;;;;;19.59;66.85;99452.31;4856543;28;20482;-67
2022/05/19 04:18:21;;;;;;;5.03;2.65;;;;;;;19.51;66.71;99413.69;4862029;28;20022;-60
2022/05/19 04:20:47;;;;;;;7.00;2.25;;;;;;;19.74;66.18;99458.41;4778660;28;20846;-65
2022/05/19 04:23:12;;;;;;;4.70;2.30;;;;;;;19.80;65.92;99459.50;4843122;28;21802;-66
2022/05/19 04:25:38;;;;;;;4.95;2.20;;;;;;;19.67;66.51;99433.75;4855918;28;21927;-67
2022/05/19 04:28:04;;;;;;;5.65;2.40;;;;;;;19.82;66.07;99464.59;4798589;28;20125;-62
2022/05/19 04:30:30;;;;;;;5.03;2.60;;;;;;;19.81;68.38;99460.34;4808595;28;20031;-67
2022/05/19 04:32:55;;;;;;;4.60;1.92;;;;;;;19.75;66.43;99462.72;4854754;28;20691;-66
2022/05/19 04:35:21;;;;;;;5.85;2.30;;;;;;;19.82;65.62;99472.53;4837716;28;20806;-65
2022/05/19 04:37:47;;;;;;;4.38;2.13;;;;;;;19.84;66.72;99466.06;4791389;28;20034;-69
2022/05/19 04:40:13;;;;;;;4.43;2.30;;;;;;;19.90;66.81;99483.00;4849997;28;20154;-67
2022/05/19 04:42:39;;;;;;;5.68;2.60;;;;;;;19.85;66.61;99472.97;4837264;28;20114;-67
2022/05/19 04:45:05;;;;;;;4.45;2.08;;;;;;;19.86;66.98;99485.19;4816722;28;21083;-62
2022/05/19 04:47:31;;;;;;;6.03;2.45;;;;;;;19.76;65.90;99489.91;4816484;28;20701;-67
2022/05/19 04:49:57;;;;;;;5.40;2.47;;;;;;;19.52;65.78;99489.16;4854658;28;21743;-66
2022/05/19 04:52:22;;;;;;;4.40;2.17;;;;;;;19.51;64.99;99491.97;4836422;28;20031;-61
2022/05/19 04:54:48;;;;;;;4.72;2.45;;;;;;;19.58;65.29;99495.50;4802555;28;20510;-67
2022/05/19 04:57:14;;;;;;;4.43;2.03;;;;;;;19.48;65.29;99466.78;4831481;28;20042;-67
2022/05/19 04:59:40;;;;;;;6.35;2.30;;;;;;;19.70;67.08;99495.91;4859081;28;20106;-67
2022/05/19 05:02:06;;;;;;;5.55;2.30;;;;;;;19.85;67.65;99502.00;4789794;28;20083;-63
2022/05/19 05:04:32;;;;;;;4.75;2.42;;;;;;;19.72;67.26;99483.34;4842802;28;20864;-66
2022/05/19 05:06:58;;;;;;;6.03;2.28;;;;;;;19.95;65.77;99510.47;4840281;28;20033;-67
2022/05/19 05:09:24;;;;;;;6.00;2.38;;;;;;;19.91;65.66;99501.25;4822692;28;20799;-63
2022/05/19 05:11:49;;;;;;;5.72;2.30;;;;;;;20.00;66.05;99509.09;4794451;28;20038;-66
2022/05/19 05:14:16;;;;;;;5.40;2.22;;;;;;;19.91;64.57;99511.00;4854475;28;20635;-67
2022/05/19 05:16:46;;;;;;;5.43;2.03;;;;;;;19.73;65.05;99508.72;4851807;28;20397;-61
2022/05/19 05:19:11;;;;;;;6.22;2.40;;;;;;;19.58;66.08;99513.97;4774166;28;21521;-62
2022/05/19 05:21:37;;;;;;;4.50;2.28;;;;;;;19.15;64.77;99450.47;4850018;28;20145;-66
2022/05/19 05:24:03;;;;;;;5.45;2.17;;;;;;;19.21;65.80;99469.03;4792568;28;20614;-67
2022/05/19 05:26:28;;;;;;;5.18;2.60;;;;;;;19.53;66.17;99511.91;4792860;28;20129;-66
2022/05/19 05:28:54;;;;;;;4.90;2.55;;;;;;;19.75;64.67;99522.56;4790523;28;20125;-65
2022/05/19 05:31:19;;;;;;;8.23;2.70;;;;;;;19.78;65.30;99514.28;4783222;28;20050;-64
2022/05/19 05:33:45;;;;;;;6.00;2.60;;;;;;;19.91;65.56;99517.09;4789577;28;20529;-65
2022/05/19 05:36:10;;;;;;;5.55;2.75;;;;;;;20.08;67.01;99514.25;4869316;28;20465;-67
2022/05/19 05:38:36;;;;;;;5.82;2.60;;;;;;;20.13;68.27;99518.00;4821070;28;20031;-62
2022/05/19 05:41:02;;;;;;;4.95;2.80;;;;;;;20.08;66.05;99519.53;4806754;28;20043;-68
2022/05/19 05:43:28;;;;;;;5.47;2.60;;;;;;;19.84;66.05;99494.25;4852190;28;20638;-66
2022/05/19 05:46:04;;;;;;;6.25;2.40;;;;;;;19.75;65.85;99496.16;4860049;28;20050;-67
2022/05/19 05:48:30;;;;;;;7.10;2.97;;;;;;;19.91;65.57;99519.72;4782388;28;20506;-63
2022/05/19 05:50:55;;;;;;;5.53;2.65;;;;;;;19.95;66.72;99520.19;4830885;28;20076;-68
2022/05/19 05:53:20;;;;;;;5.40;2.22;;;;;;;20.03;66.57;99524.56;4850230;28;20042;-67
2022/05/19 05:55:46;;;;;;;5.03;2.60;;;;;;;19.93;66.78;99487.88;4823777;28;20042;-64
2022/05/19 05:58:11;;;;;;;5.82;2.50;;;;;;;20.08;66.34;99488.69;4802482;28;21592;-67
2022/05/19 06:00:38;;;;;;;5.35;2.50;;;;;;;20.30;66.75;99526.53;4858089;28;20598;-65
2022/05/19 06:03:04;;;;;;;5.72;2.40;;;;;;;20.27;66.81;99526.06;4844870;28;20160;-63
2022/05/19 06:05:30;;;;;;;4.72;2.50;;;;;;;20.39;65.14;99518.47;4784254;28;20046;-61
2022/05/19 06:07:55;;;;;;;5.90;2.30;;;;;;;20.48;65.03;99520.00;4843210;28;20031;-66
2022/05/19 06:10:21;;;;;;;5.15;2.50;;;;;;;20.36;66.09;99488.00;4856156;28;20332;-67
2022/05/19 06:12:46;;;;;;;4.20;2.17;;;;;;;20.56;65.35;99511.97;4810770;28;20526;-62
2022/05/19 06:15:13;;;;;;;4.22;2.30;;;;;;;20.55;65.34;99510.31;4811369;28;20375;-65
2022/05/19 06:17:39;;;;;;;7.50;3.05;;;;;;;20.65;65.65;99502.13;4857186;28;20345;-65
2022/05/19 06:20:07;;;;;;;5.32;2.30;;;;;;;20.46;65.66;99474.47;4847481;28;20038;-62
2022/05/19 06:22:33;;;;;;;4.18;2.45;;;;;;;20.69;64.86;99509.47;4783571;28;20031;-66
2022/05/19 06:24:58;;;;;;;5.10;2.13;;;;;;;20.65;64.88;99512.72;4852559;28;20420;-65
2022/05/19 06:27:23;;;;;;;4.88;2.30;;;;;;;20.71;63.54;99510.09;4851057;28;20039;-70
2022/05/19 06:29:49;;;;;;;4.88;1.80;;;;;;;20.53;59.94;99513.19;4807177;28;20097;-60
2022/05/19 06:32:14;;;;;;;5.10;1.77;;;;;;;20.56;61.83;99511.97;4821462;28;20109;-65
2022/05/19 06:34:39;;;;;;;3.78;1.88;;;;;;;20.59;62.88;99506.31;4853709;28;20030;-66
2022/05/19 06:37:05;;;;;;;4.53;2.00;;;;;;;20.47;62.21;99482.22;4831495;28;20032;-60
2022/05/19 06:39:30;;;;;;;4.53;2.00;;;;;;;20.65;61.56;99513.50;4797970;28;20168;-64
2022/05/19 06:42:02;;;;;;;6.80;2.20;;;;;;;20.71;60.44;99510.09;4849803;28;22490;-68
2022/05/19 06:44:38;;;;;;;7.22;2.08;;;;;;;20.49;58.14;99519.81;4859873;28;20035;-66
2022/05/19 06:47:13;;;;;;;4.40;1.83;;;;;;;20.40;57.72;99522.75;4808118;28;20034;-64
2022/05/19 06:49:42;;;;;;;4.35;1.80;;;;;;;20.14;56.83;99497.69;4807352;28;20054;-66
2022/05/19 06:52:13;;;;;;;4.93;2.38;;;;;;;20.13;57.32;99527.72;4853112;28;20474;-60
2022/05/19 06:54:39;;;;;;;8.38;2.03;;;;;;;20.03;57.20;99498.19;4791424;28;20256;-63
2022/05/19 06:57:05;;;;;;;7.13;2.28;;;;;;;20.26;59.74;99519.97;4838968;28;20045;-66
2022/05/19 06:59:30;;;;;;;5.93;1.98;;;;;;;20.06;59.78;99506.53;4822707;28;20039;-65
2022/05/19 07:01:56;;;;;;;5.18;2.35;;;;;;;20.01;58.41;99526.59;4813395;28;20165;-67
2022/05/19 07:04:21;;;;;;;4.40;2.10;;;;;;;19.85;57.59;99525.75;4863109;28;25204;-65
2022/05/19 07:06:46;;;;;;;4.90;1.95;;;;;;;19.89;59.23;99523.56;4850345;28;20386;-63
2022/05/19 07:12:34;;;;;;;3.85;1.77;;;;;;;20.03;60.05;99529.84;4783006;28;20354;-68
2022/05/19 07:15:00;;;;;;;5.47;1.92;;;;;;;20.04;58.59;99524.38;4852528;28;20065;-65
2022/05/19 07:17:26;;;;;;;6.22;1.80;;;;;;;20.12;57.81;99529.56;4849922;28;20106;-68
2022/05/19 07:22:35;;;;;;;5.03;1.80;;;;;;;20.16;57.46;99527.38;4805404;28;20127;-66
2022/05/19 07:25:03;;;;;;;4.38;1.88;;;;;;;20.24;58.59;99529.06;4853097;28;20977;-67
2022/05/19 07:27:28;;;;;;;4.78;2.20;;;;;;;20.12;58.51;99500.50;4867375;28;20041;-67
2022/05/19 07:29:55;;;;;;;5.07;1.85;;;;;;;20.16;59.10;99530.81;4800963;28;20546;-62
2022/05/19 07:32:21;;;;;;;5.50;2.13;;;;;;;20.29;58.63;99524.06;4842722;28;20069;-66
2022/05/19 07:34:47;;;;;;;4.10;1.80;;;;;;;20.32;57.96;99515.78;4851546;28;20378;-67
2022/05/19 07:37:13;;;;;;;5.50;1.90;;;;;;;20.40;58.36;99512.19;4824957;28;20860;-64
2022/05/19 07:39:38;;;;;;;4.05;1.70;;;;;;;20.20;54.63;99526.00;4814086;28;20964;-67
2022/05/19 07:42:04;;;;;;;4.82;1.55;;;;;;;20.33;53.61;99520.03;4847657;28;24870;-65
2022/05/19 07:44:30;;;;;;;4.05;1.70;;;;;;;20.95;52.27;99520.50;4852434;28;20039;-63
2022/05/19 07:46:56;;;;;;;4.93;1.85;;;;;;;21.50;50.79;99521.56;4777273;28;20809;-65
2022/05/19 07:49:22;;;;;;;4.43;1.80;;;;;;;21.77;49.38;99514.59;4838538;28;21922;-67
2022/05/19 07:51:47;;;;;;;4.70;1.58;;;;;;;21.83;47.81;99491.81;4863894;28;23306;-64
2022/05/19 07:54:16;;;;;;;4.40;1.67;;;;;;;22.31;47.43;99506.94;4822845;28;20035;-67
2022/05/19 07:56:42;;;;;;;4.20;1.60;;;;;;;22.75;47.70;99508.25;4825540;28;20045;-66
2022/05/19 07:59:08;;;;;;;4.20;1.60;;;;;;;22.89;46.52;99498.44;4849954;28;20574;-64
2022/05/19 08:01:34;;;;;;;4.32;1.80;;;;;;;23.13;46.02;99508.50;4844376;28;20027;-60
2022/05/19 08:04:00;;;;;;;4.10;1.70;;;;;;;23.25;45.97;99508.69;4796842;28;20142;-68
2022/05/19 08:06:28;;;;;;;4.40;1.80;;;;;;;23.61;45.79;99512.72;4835158;28;20486;-66
2022/05/19 08:08:54;;;;;;;4.07;1.65;;;;;;;23.82;44.49;99503.72;4864791;28;20027;-65
2022/05/19 08:11:19;;;;;;;5.53;2.00;;;;;;;23.77;43.80;99476.94;4813544;28;20065;-59
2022/05/19 08:16:29;;;;;;;4.40;1.70;;;;;;;24.29;42.12;99503.50;4857961;28;20125;-66
2022/05/19 08:18:55;;;;;;;5.70;1.80;;;;;;;24.25;42.00;99507.63;4852600;28;20466;-62
2022/05/19 08:21:21;;;;;;;3.92;1.60;;;;;;;24.40;42.68;99486.88;4787713;28;20809;-66
2022/05/19 08:23:52;;;;;;;4.60;1.50;;;;;;;24.64;41.04;99482.69;4854444;28;20761;-64
2022/05/19 08:26:18;;;;;;;3.72;1.65;;;;;;;25.05;41.57;99494.63;4848543;28;20023;-61
2022/05/19 08:28:44;;;;;;;4.70;1.75;;;;;;;24.66;40.37;99475.31;4800787;28;20049;-68
2022/05/19 08:31:18;;;;;;;7.35;2.00;;;;;;;25.26;42.05;99496.13;4860949;28;20042;-63
2022/05/19 08:33:45;;;;;;;5.18;1.52;;;;;;;25.56;39.69;99491.94;4841290;28;20054;-65
2022/05/19 08:36:11;;;;;;;4.35;1.80;;;;;;;25.47;39.13;99492.22;4847949;28;20031;-66
2022/05/19 08:38:37;;;;;;;4.43;1.60;;;;;;;25.30;40.37;99497.31;4806606;28;20042;-66
2022/05/19 08:41:06;;;;;;;4.18;1.70;;;;;;;25.54;39.21;99494.81;4834318;28;20169;-66
2022/05/19 08:43:47;;;;;;;3.90;1.52;;;;;;;25.89;38.08;99483.56;4851623;28;20078;-65
2022/05/19 08:46:33;;;;;;;5.05;2.00;;;;;;;26.29;36.61;99483.09;4787161;28;24746;-67
2022/05/19 08:49:02;;;;;;;5.32;1.80;;;;;;;26.75;36.75;99476.28;4860614;28;20042;-67
2022/05/19 08:51:36;;;;;;;4.38;1.52;;;;;;;27.00;36.27;99470.72;4869196;28;20119;-66
2022/05/19 08:54:07;;;;;;;4.30;1.70;;;;;;;26.72;35.15;99474.06;4829177;28;20027;-62
2022/05/19 08:56:36;;;;;;;4.75;1.60;;;;;;;26.66;34.25;99440.31;4814296;28;20122;-66
2022/05/19 08:59:39;;;;;;;5.60;1.60;;;;;;;26.91;34.04;99472.13;4842241;28;20479;-66
2022/05/19 09:02:13;;;;;;;4.28;1.60;;;;;;;27.09;33.05;99463.19;4849490;28;21897;-64
2022/05/19 09:08:38;;;;;;;4.93;1.60;;;;;;;26.83;34.61;99469.78;4838457;28;20110;-62
2022/05/19 09:11:14;;;;;;;3.58;1.38;;;;;;;27.22;33.46;99465.63;4814193;28;20081;-60
2022/05/19 09:13:52;;;;;;;4.78;1.58;;;;;;;27.38;32.90;99465.97;4835853;28;20076;-63
2022/05/19 09:16:24;;;;;;;5.60;1.70;;;;;;;27.00;31.67;99420.03;4860575;28;20955;-63
2022/05/19 09:18:53;;;;;;;3.92;1.60;;;;;;;27.44;32.94;99446.38;4847562;28;20023;-72
2022/05/19 09:21:18;;;;;;;3.70;1.58;;;;;;;27.98;33.22;99456.81;4789711;28;20593;-61
2022/05/19 09:23:44;;;;;;;3.92;1.70;;;;;;;27.88;31.42;99457.41;4852137;28;21587;-68
2022/05/19 09:26:41;;;;;;;4.10;1.80;;;;;;;27.72;31.20;99458.94;4865304;28;20047;-66
2022/05/19 09:29:33;;;;;;;3.67;1.60;;;;;;;28.10;31.99;99464.78;4864999;28;20030;-63
2022/05/19 09:32:25;;;;;;;4.20;1.55;;;;;;;27.78;31.89;99458.03;4842221;28;20651;-63
2022/05/19 09:34:52;;;;;;;5.35;1.92;;;;;;;27.85;31.76;99457.06;4781630;28;20046;-67
2022/05/19 09:37:25;;;;;;;4.32;1.75;;;;;;;27.58;32.14;99447.75;4835506;28;20470;-62
2022/05/19 09:39:53;;;;;;;3.63;1.58;;;;;;;27.11;31.59;99437.09;4855279;28;20038;-64
2022/05/19 09:42:33;;;;;;;4.35;1.83;;;;;;;26.92;33.32;99441.72;4784151;28;20653;-64
2022/05/19 09:44:59;;;;;;;5.57;1.90;;;;;;;26.77;33.73;99436.84;4828128;28;20770;-65
2022/05/19 09:47:33;;;;;;;6.32;1.70;;;;;;;26.55;34.49;99444.53;4860541;28;20038;-68
2022/05/19 09:50:17;;;;;;;3.90;1.73;;;;;;;26.41;34.10;99440.44;4827634;28;20704;-64
2022/05/19 09:52:44;;;;;;;5.28;1.70;;;;;;;25.93;34.37;99446.66;4805742;28;20469;-65
2022/05/19 09:55:12;;;;;;;4.78;2.42;;;;;;;25.68;35.48;99448.38;4857637;28;20031;-66
2022/05/19 09:58:02;;;;;;;8.30;1.83;;;;;;;25.30;35.43;99408.69;4846459;28;20564;-63
2022/05/19 10:00:44;;;;;;;5.28;1.77;;;;;;;25.54;35.82;99438.91;4813591;28;20038;-62
2022/05/19 10:03:13;;;;;;;4.47;1.70;;;;;;;25.32;36.26;99431.38;4807668;28;20359;-69
2022/05/19 10:05:47;;;;;;;4.80;1.63;;;;;;;25.11;37.02;99445.06;4821197;28;21416;-66
2022/05/19 10:08:37;;;;;;;4.93;1.60;;;;;;;25.28;36.18;99440.81;4848209;28;21059;-68
2022/05/19 10:11:07;;;;;;;4.38;1.65;;;;;;;25.23;36.39;99431.84;4830277;28;20487;-61
2022/05/19 10:13:43;;;;;;;3.90;1.67;;;;;;;25.01;36.50;99407.47;4787717;28;20132;-67
2022/05/19 10:16:09;;;;;;;4.10;1.60;;;;;;;25.14;38.62;99437.44;4835326;28;20026;-67
2022/05/19 10:22:34;;;;;;;5.20;1.85;;;;;;;25.16;36.63;99418.59;4852035;28;20402;-67
2022/05/19 10:25:06;;;;;;;5.07;1.90;;;;;;;24.89;37.65;99431.34;4856376;28;20081;-58
2022/05/19 10:36:31;;;;;;;5.53;2.10;;;;;;;24.78;37.56;99400.94;4857510;28;20717;-67
2022/05/19 10:39:10;;;;;;;6.10;2.33;;;;;;;24.81;37.34;99407.69;4869772;28;20069;-66
2022/05/19 10:42:09;;;;;;;5.22;1.85;;;;;;;24.68;37.78;99404.13;4795245;28;20027;-63
2022/05/19 10:45:02;;;;;;;4.97;1.90;;;;;;;24.87;39.39;99396.16;4778648;28;20085;-61
2022/05/19 10:48:00;;;;;;;4.85;2.10;;;;;;;24.90;37.65;99411.72;4834675;28;20549;-66
2022/05/19 10:50:39;;;;;;;5.75;1.98;;;;;;;24.92;36.77;99399.81;4855125;28;20527;-66
2022/05/19 10:53:25;;;;;;;6.32;2.00;;;;;;;24.73;38.83;99368.88;4866951;28;20437;-64
2022/05/19 10:55:54;;;;;;;4.90;1.90;;;;;;;24.75;38.79;99362.31;4866340;28;20184;-63
2022/05/19 10:58:40;;;;;;;4.40;1.85;;;;;;;25.06;38.76;99389.03;4779658;28;20557;-62
2022/05/19 11:01:26;;;;;;;6.32;2.30;;;;;;;25.01;38.52;99376.41;4816977;28;20070;-66
2022/05/19 11:04:02;;;;;;;4.13;1.80;;;;;;;25.09;37.74;99381.41;4844093;28;20378;-63
2022/05/19 11:06:49;;;;;;;4.68;2.25;;;;;;;25.07;38.13;99380.03;4841018;28;20034;-70
2022/05/19 11:13:01;;;;;;;4.75;1.95;;;;;;;25.17;38.70;99379.50;4836265;28;20077;-58
2022/05/19 11:15:48;;;;;;;5.25;1.90;;;;;;;25.14;38.09;99378.09;4798235;28;25243;-62
2022/05/19 11:18:19;;;;;;;5.85;2.10;;;;;;;25.26;38.41;99376.38;4814434;28;20042;-65
2022/05/19 11:20:54;;;;;;;4.10;2.20;;;;;;;25.24;38.26;99377.59;4853426;28;20611;-62
2022/05/19 11:23:39;;;;;;;4.85;1.88;;;;;;;25.04;37.87;99375.13;4859173;28;20497;-61
2022/05/19 11:26:38;;;;;;;5.00;2.03;;;;;;;25.19;38.80;99377.44;4803486;28;20133;-62
2022/05/19 11:29:20;;;;;;;5.18;2.17;;;;;;;25.23;39.15;99368.00;4811782;28;20104;-66
2022/05/19 11:32:10;;;;;;;5.85;2.10;;;;;;;25.34;36.78;99353.97;4837613;28;20415;-63
2022/05/19 11:34:48;;;;;;;4.30;2.00;;;;;;;25.36;37.93;99362.53;4817032;28;20034;-61
2022/05/19 11:37:31;;;;;;;6.57;2.15;;;;;;;25.43;38.46;99367.78;4793163;28;20038;-62
2022/05/19 11:40:17;;;;;;;4.88;1.88;;;;;;;25.46;38.61;99367.31;4782868;28;20046;-66
2022/05/19 11:43:00;;;;;;;4.80;2.40;;;;;;;25.49;36.34;99362.38;4782662;28;20034;-63
2022/05/19 11:45:33;;;;;;;6.13;2.30;;;;;;;25.48;37.50;99359.91;4783471;28;20038;-64
2022/05/19 11:56:46;;;;;;;5.90;2.13;;;;;;;25.48;37.87;99331.47;4824488;28;20057;-64
2022/05/19 11:59:11;;;;;;;5.22;2.10;;;;;;;25.59;38.71;99340.53;4857697;28;20039;-66
2022/05/19 12:01:44;;;;;;;5.15;1.90;;;;;;;25.40;38.50;99341.59;4843184;28;20027;-59
2022/05/19 12:04:13;;;;;;;5.10;2.50;;;;;;;25.43;38.16;99331.31;4776985;28;20034;-65
2022/05/19 12:06:49;;;;;;;;;;;;;;;25.41;38.11;99312.09;4854710;28;20035;-67
2022/05/19 12:09:32;;;;;;;5.47;1.95;;;;;;;25.37;37.42;99302.13;4855386;28;19918;-65
2022/05/19 12:12:22;;;;;;;5.88;2.13;;;;;;;25.63;37.44;99331.06;4827830;28;20490;-61
2022/05/19 12:15:07;;;;;;;6.35;2.17;;;;;;;25.76;37.33;99330.06;4799584;28;21155;-63
2022/05/19 12:17:41;;;;;;;5.45;2.28;;;;;;;25.59;37.86;99294.44;4812322;28;20042;-67
2022/05/19 12:20:45;;;;;;;5.13;2.22;;;;;;;25.92;37.75;99325.13;4844131;28;20641;-61
2022/05/19 12:23:18;;;;;;;6.75;2.10;;;;;;;26.07;36.15;99322.88;4859154;28;20097;-66
2022/05/19 12:25:50;;;;;;;4.60;2.20;;;;;;;25.90;35.27;99336.00;4852942;28;20435;-61
2022/05/19 12:28:18;;;;;;;5.65;2.10;;;;;;;26.00;36.47;99328.31;4775708;28;21673;-64